Time;durP1;ratioP1;P1;durP2;ratioP2;P2;SDS_P1;SDS_P2;PMS_P1;PMS_P2;Temp;Humidity;BMP_temperature;BMP_pressure;BME280_temperature;BME280_humidity;BME280_pressure;Samples;Min_cycle;Max_cycle;Signal;HPM_P1;HPM_P2
2021/06/29 00:01:40;;;;;;;0.40;0.40;;;;;;;19.46;82.36;98691.94;5176388;27;20564;-84
2021/06/29 00:04:39;;;;;;;0.40;0.40;;;;;;;19.45;82.69;98682.19;5178374;27;21039;-85
2021/06/29 00:07:39;;;;;;;1.03;0.93;;;;;;;19.37;83.10;98652.59;5233361;27;21306;-85
2021/06/29 00:10:39;;;;;;;0.40;0.40;;;;;;;19.45;82.59;98659.88;5233501;27;21022;-83
2021/06/29 00:13:39;;;;;;;0.67;0.60;;;;;;;19.42;81.72;98642.22;5232775;27;20525;-82
2021/06/29 00:16:38;;;;;;;0.63;0.63;;;;;;;19.38;81.56;98648.91;5233097;27;21049;-82
2021/06/29 00:19:51;;;;;;;0.50;0.50;;;;;;;19.38;81.59;98638.19;5187844;27;21370;-80
2021/06/29 00:22:52;;;;;;;0.50;0.50;;;;;;;19.39;81.31;98639.88;5233653;27;20521;-83
2021/06/29 00:25:33;;;;;;;0.30;0.30;;;;;;;19.36;80.90;98632.97;4578960;27;18618947;-81
2021/06/29 00:28:33;;;;;;;0.40;0.40;;;;;;;19.35;80.62;98635.78;5232667;27;20532;-81
2021/06/29 00:31:41;;;;;;;0.40;0.40;;;;;;;19.24;80.54;98628.00;5180464;27;20522;-81
2021/06/29 00:34:55;;;;;;;0.33;0.33;;;;;;;19.33;80.48;98637.78;5189213;27;20616;-84
2021/06/29 00:38:11;;;;;;;0.37;0.37;;;;;;;19.31;80.60;98637.09;5187416;27;21051;-81
2021/06/29 00:41:19;;;;;;;0.30;0.30;;;;;;;19.29;80.14;98620.28;5162376;27;21038;-81
2021/06/29 00:44:23;;;;;;;0.40;0.40;;;;;;;19.33;79.89;98624.38;5178902;27;20619;-82
2021/06/29 00:47:23;;;;;;;0.40;0.40;;;;;;;19.42;80.06;98633.31;5232956;27;21036;-83
2021/06/29 00:50:24;;;;;;;0.60;0.60;;;;;;;19.34;80.31;98636.78;5233073;27;20520;-82
2021/06/29 00:53:24;;;;;;;0.40;0.40;;;;;;;19.41;80.28;98653.97;5232384;27;20654;-86
2021/06/29 00:56:23;;;;;;;0.40;0.40;;;;;;;19.40;80.45;98654.97;5232912;27;20528;-84
2021/06/29 00:59:23;;;;;;;0.93;0.93;;;;;;;19.41;80.14;98637.84;5236110;27;20568;-82
2021/06/29 01:02:23;;;;;;;0.63;0.63;;;;;;;19.37;80.71;98634.66;5233487;27;20971;-82
2021/06/29 01:05:23;;;;;;;0.60;0.53;;;;;;;19.25;81.47;98621.63;5233598;27;20880;-85
2021/06/29 01:08:23;;;;;;;0.47;0.47;;;;;;;19.37;81.01;98641.88;5233399;27;20871;-84
2021/06/29 01:11:23;;;;;;;0.70;0.70;;;;;;;19.33;80.78;98629.72;5233113;27;20520;-86
2021/06/29 01:14:20;;;;;;;0.40;0.40;;;;;;;19.28;80.87;98607.91;5144829;27;20530;-84
2021/06/29 01:17:22;;;;;;;0.37;0.37;;;;;;;19.29;80.55;98604.19;5234543;27;20536;-83
2021/06/29 01:20:25;;;;;;;0.40;0.40;;;;;;;19.44;80.22;98625.94;5233242;27;20642;-84
2021/06/29 01:23:27;;;;;;;0.70;0.70;;;;;;;19.40;80.44;98601.28;5233879;27;22167;-79
2021/06/29 01:26:30;;;;;;;0.50;0.50;;;;;;;19.41;80.56;98594.88;5232596;27;20529;-81
2021/06/29 01:29:43;;;;;;;0.30;0.30;;;;;;;19.46;80.23;98581.81;5175771;27;20625;-86
2021/06/29 01:32:55;;;;;;;0.60;0.60;;;;;;;19.44;81.04;98559.66;5189523;27;21279;-81
2021/06/29 01:35:38;;;;;;;0.70;0.70;;;;;;;19.53;81.05;98577.56;4661704;27;15047869;-86
2021/06/29 01:38:38;;;;;;;0.53;0.53;;;;;;;19.52;81.17;98586.59;5232875;27;21226;-82
2021/06/29 01:41:39;;;;;;;0.50;0.50;;;;;;;19.50;80.84;98593.97;5233684;27;20516;-85
2021/06/29 01:44:47;;;;;;;0.77;0.77;;;;;;;19.40;80.64;98603.13;5162596;27;20611;-86
2021/06/29 01:48:01;;;;;;;0.57;0.57;;;;;;;19.52;80.73;98621.53;5188833;27;20517;-82
2021/06/29 01:51:02;;;;;;;0.97;0.50;;;;;;;19.53;80.46;98615.16;5232158;27;20520;-82
2021/06/29 01:54:03;;;;;;;0.60;0.60;;;;;;;19.49;80.77;98629.91;5223081;27;20526;-81
2021/06/29 01:57:03;;;;;;;0.47;0.47;;;;;;;19.48;81.30;98636.22;5233408;27;20525;-82
2021/06/29 02:00:06;;;;;;;0.40;0.40;;;;;;;19.47;81.17;98634.53;5232557;27;20528;-82
2021/06/29 02:03:12;;;;;;;0.50;0.50;;;;;;;19.46;81.47;98646.28;5233403;27;20980;-84
2021/06/29 02:06:13;;;;;;;0.90;0.50;;;;;;;19.46;81.35;98635.53;5146830;27;20535;-83
2021/06/29 02:09:12;;;;;;;1.27;0.90;;;;;;;19.47;81.49;98615.75;5233430;27;20532;-84
2021/06/29 02:12:20;;;;;;;0.60;0.60;;;;;;;19.43;81.64;98619.72;5184812;27;20523;-79
2021/06/29 02:15:22;;;;;;;0.50;0.50;;;;;;;19.32;81.70;98603.88;5151787;27;20496;-80
2021/06/29 02:18:20;;;;;;;0.40;0.40;;;;;;;19.41;81.43;98615.53;5162389;27;20523;-78
2021/06/29 02:21:21;;;;;;;0.77;0.77;;;;;;;19.16;81.54;98571.56;5245079;27;20587;-81
2021/06/29 02:24:39;;;;;;;0.40;0.40;;;;;;;19.23;81.41;98586.03;5200932;27;20513;-79
2021/06/29 02:27:36;;;;;;;0.60;0.60;;;;;;;19.36;81.16;98619.53;5193720;27;20496;-80
2021/06/29 02:30:40;;;;;;;0.43;0.43;;;;;;;19.35;81.21;98606.25;5246145;27;20564;-78
2021/06/29 02:33:49;;;;;;;0.50;0.50;;;;;;;19.37;81.16;98617.69;5175978;27;20486;-79
2021/06/29 02:36:49;;;;;;;0.40;0.40;;;;;;;19.25;80.67;98594.78;5245291;27;20484;-78
2021/06/29 02:39:50;;;;;;;0.70;0.70;;;;;;;19.31;80.54;98604.88;5246001;27;20519;-79
2021/06/29 02:42:50;;;;;;;0.73;0.73;;;;;;;19.32;80.62;98612.78;5239360;27;20585;-85
2021/06/29 02:46:23;;;;;;;0.43;0.43;;;;;;;19.26;80.53;98599.16;5189614;27;21085;-84
2021/06/29 02:49:30;;;;;;;0.50;0.50;;;;;;;19.33;80.73;98613.63;5183842;27;20530;-83
2021/06/29 02:52:41;;;;;;;0.67;0.67;;;;;;;19.31;80.98;98621.84;5191059;27;20513;-84
2021/06/29 02:55:40;;;;;;;0.53;0.53;;;;;;;19.31;80.68;98621.00;5236767;27;20524;-79
2021/06/29 02:58:40;;;;;;;0.60;0.60;;;;;;;19.31;80.96;98631.72;5150743;27;20952;-85
2021/06/29 03:01:39;;;;;;;0.80;0.80;;;;;;;19.32;80.96;98623.53;5170898;27;20518;-79
2021/06/29 03:04:40;;;;;;;0.50;0.50;;;;;;;19.24;80.93;98614.56;5236733;27;20512;-85
2021/06/29 03:07:52;;;;;;;0.60;0.60;;;;;;;19.19;80.69;98606.13;5190456;27;20513;-85
2021/06/29 03:10:34;;;;;;;0.30;0.30;;;;;;;19.31;80.80;98635.25;4561803;27;17879080;-82
2021/06/29 03:13:38;;;;;;;0.50;0.50;;;;;;;19.20;80.54;98630.13;5186237;27;20558;-83
2021/06/29 03:16:39;;;;;;;0.70;0.70;;;;;;;19.25;80.63;98632.38;5233334;27;20536;-87
2021/06/29 03:19:39;;;;;;;0.47;0.47;;;;;;;19.18;80.66;98610.66;5232332;27;20520;-84
2021/06/29 03:22:44;;;;;;;0.70;0.70;;;;;;;19.28;80.84;98626.69;5183081;27;20619;-82
2021/06/29 03:25:47;;;;;;;0.50;0.50;;;;;;;19.31;80.45;98631.72;5173779;27;20524;-84
2021/06/29 03:28:47;;;;;;;0.50;0.50;;;;;;;19.34;80.25;98644.84;5233465;27;20519;-85
2021/06/29 03:31:58;;;;;;;0.50;0.50;;;;;;;19.31;80.53;98642.47;5188956;27;20517;-81
2021/06/29 03:34:38;;;;;;;0.37;0.37;;;;;;;19.37;80.05;98655.28;4581688;27;18543753;-85
2021/06/29 03:37:38;;;;;;;0.50;0.50;;;;;;;19.40;80.46;98648.75;5233306;27;20519;-87
2021/06/29 03:40:40;;;;;;;0.63;0.63;;;;;;;19.41;80.49;98661.19;5234006;27;20581;-81
2021/06/29 03:43:40;;;;;;;0.50;0.50;;;;;;;19.40;80.89;98665.72;5212671;27;20563;-84
2021/06/29 03:46:52;;;;;;;0.60;0.60;;;;;;;19.37;81.99;98669.56;5170430;27;20483;-85
2021/06/29 03:49:34;;;;;;;0.77;0.77;;;;;;;19.39;81.79;98666.72;4581948;27;18569700;-82
2021/06/29 03:52:33;;;;;;;1.00;0.90;;;;;;;19.38;81.92;98665.88;5179298;27;20604;-83
2021/06/29 03:55:33;;;;;;;0.90;0.90;;;;;;;19.38;81.88;98665.03;5233328;27;20555;-79
2021/06/29 03:58:32;;;;;;;0.80;0.80;;;;;;;19.35;81.77;98647.38;5233152;27;21133;-85
2021/06/29 04:01:29;;;;;;;0.67;0.67;;;;;;;19.55;81.26;98661.47;5180977;27;20520;-85
2021/06/29 04:04:26;;;;;;;0.70;0.70;;;;;;;19.56;81.26;98655.09;5181337;27;20524;-85
2021/06/29 04:07:29;;;;;;;0.60;0.60;;;;;;;19.65;81.16;98662.25;5232918;27;20505;-87
2021/06/29 04:10:35;;;;;;;0.67;0.67;;;;;;;19.62;81.07;98659.88;5177029;27;20531;-81
2021/06/29 04:13:34;;;;;;;0.80;0.80;;;;;;;19.72;81.26;98657.91;5233267;27;20533;-80
2021/06/29 04:16:34;;;;;;;1.20;0.80;;;;;;;19.71;81.81;98650.84;5232857;27;20536;-79
2021/06/29 04:19:33;;;;;;;0.60;0.60;;;;;;;19.77;81.37;98643.16;5232327;27;20608;-83
2021/06/29 04:22:32;;;;;;;1.47;1.37;;;;;;;19.79;80.92;98641.97;5179033;27;21077;-80
2021/06/29 04:25:35;;;;;;;0.70;0.70;;;;;;;19.84;80.92;98638.81;5176650;27;20526;-82
2021/06/29 04:28:33;;;;;;;0.83;0.83;;;;;;;19.82;80.74;98627.38;5232082;27;21049;-82
2021/06/29 04:31:33;;;;;;;1.00;0.90;;;;;;;19.93;80.56;98632.50;5178473;27;20540;-82
2021/06/29 04:34:33;;;;;;;0.80;0.80;;;;;;;19.97;80.22;98628.47;5233338;27;20532;-82
2021/06/29 04:37:33;;;;;;;1.00;1.00;;;;;;;19.92;80.21;98607.44;5233948;27;20564;-82
2021/06/29 04:40:34;;;;;;;0.60;0.60;;;;;;;20.06;79.92;98630.19;5212756;27;20510;-81
2021/06/29 04:43:37;;;;;;;0.67;0.60;;;;;;;20.13;79.73;98633.09;5233581;27;20980;-84
2021/06/29 04:46:37;;;;;;;0.80;0.80;;;;;;;20.16;79.92;98633.59;5233662;27;20524;-81
2021/06/29 04:49:37;;;;;;;0.70;0.70;;;;;;;20.19;79.61;98627.06;5176024;27;20639;-82
2021/06/29 04:52:37;;;;;;;0.57;0.57;;;;;;;20.21;79.65;98633.97;5179454;27;20597;-81
2021/06/29 04:55:37;;;;;;;0.80;0.80;;;;;;;20.23;79.88;98631.13;5233795;27;20573;-82
2021/06/29 04:58:37;;;;;;;1.23;1.13;;;;;;;20.25;79.67;98631.81;5225203;27;20522;-82
2021/06/29 05:01:38;;;;;;;2.17;1.03;;;;;;;20.18;80.01;98609.25;5233871;27;20557;-82
2021/06/29 05:04:50;;;;;;;0.80;0.80;;;;;;;20.32;79.66;98620.22;5189759;27;21207;-82
2021/06/29 05:07:32;;;;;;;0.63;0.63;;;;;;;20.37;81.16;98620.63;4661267;27;15037013;-82
2021/06/29 05:10:32;;;;;;;0.67;0.53;;;;;;;20.36;80.46;98615.41;5233529;27;20572;-82
2021/06/29 05:13:33;;;;;;;0.83;0.83;;;;;;;20.39;80.50;98624.00;5233671;27;20525;-82
2021/06/29 05:16:32;;;;;;;0.70;0.70;;;;;;;20.43;80.67;98619.94;5228429;27;21028;-82
2021/06/29 05:19:38;;;;;;;0.67;0.67;;;;;;;20.43;80.18;98611.88;5188215;27;20520;-81
2021/06/29 05:22:39;;;;;;;0.63;0.63;;;;;;;20.52;80.05;98607.38;5232802;27;20524;-82
2021/06/29 05:25:40;;;;;;;0.80;0.80;;;;;;;20.71;79.22;98617.00;5224255;27;20526;-81
2021/06/29 05:28:40;;;;;;;0.70;0.70;;;;;;;20.75;79.30;98615.66;5233857;27;20515;-82
2021/06/29 05:31:41;;;;;;;0.70;0.70;;;;;;;20.89;79.07;98627.63;5233743;27;20553;-82
2021/06/29 05:34:42;;;;;;;1.43;1.10;;;;;;;20.94;78.12;98631.47;5234200;27;20576;-82
2021/06/29 05:37:42;;;;;;;2.30;2.10;;;;;;;21.03;77.77;98622.41;5233476;27;20520;-81
2021/06/29 05:40:43;;;;;;;1.30;1.13;;;;;;;21.13;77.86;98627.63;5222663;27;21052;-81
2021/06/29 05:43:43;;;;;;;1.20;1.10;;;;;;;21.18;77.25;98625.25;5228738;27;20554;-82
2021/06/29 05:46:54;;;;;;;1.47;1.37;;;;;;;21.23;76.96;98614.03;5181485;27;20553;-82
2021/06/29 05:50:09;;;;;;;0.80;0.80;;;;;;;21.45;76.56;98622.25;5188820;27;20904;-83
2021/06/29 05:53:18;;;;;;;0.70;0.70;;;;;;;21.60;76.25;98618.88;5180496;27;20522;-82
2021/06/29 05:56:20;;;;;;;1.43;0.70;;;;;;;21.63;75.75;98605.06;5173610;27;20611;-82
2021/06/29 05:59:26;;;;;;;1.03;0.90;;;;;;;21.83;75.32;98614.44;5162028;27;20522;-81
2021/06/29 06:02:25;;;;;;;1.17;0.80;;;;;;;21.98;74.92;98611.84;5233539;27;20492;-82
2021/06/29 06:05:24;;;;;;;0.60;0.60;;;;;;;22.15;74.33;98608.09;5211616;27;20553;-78
2021/06/29 06:08:24;;;;;;;0.63;0.60;;;;;;;22.21;72.97;98607.41;5193945;27;20520;-78
2021/06/29 06:11:23;;;;;;;0.70;0.70;;;;;;;22.23;72.29;98599.97;5229728;27;20540;-78
2021/06/29 06:14:20;;;;;;;0.73;0.73;;;;;;;22.16;73.30;98569.31;5149257;27;20539;-78
2021/06/29 06:17:17;;;;;;;0.70;0.70;;;;;;;22.21;72.83;98577.75;5179573;27;20528;-79
2021/06/29 06:20:15;;;;;;;0.63;0.60;;;;;;;22.32;72.75;98598.91;5179573;27;20528;-78
2021/06/29 06:23:21;;;;;;;0.60;0.60;;;;;;;22.36;72.82;98608.34;5178998;27;20526;-82
2021/06/29 06:26:21;;;;;;;1.07;0.90;;;;;;;22.33;72.69;98611.41;5217786;27;20522;-83
2021/06/29 06:29:21;;;;;;;0.70;0.70;;;;;;;22.27;72.79;98611.25;5233146;27;20520;-78
2021/06/29 06:32:33;;;;;;;0.80;0.80;;;;;;;22.15;72.45;98608.09;5188465;27;21019;-80
2021/06/29 06:35:31;;;;;;;0.90;0.87;;;;;;;22.03;72.15;98610.34;5227519;27;21416;-79
2021/06/29 06:38:54;;;;;;;0.70;0.57;;;;;;;21.93;72.49;98603.44;5181671;27;20516;-80
2021/06/29 06:41:54;;;;;;;0.70;0.70;;;;;;;21.90;72.75;98601.91;5231807;27;20577;-80
2021/06/29 06:44:57;;;;;;;0.90;0.90;;;;;;;21.79;72.69;98581.56;5154160;27;20498;-79
2021/06/29 06:47:57;;;;;;;0.80;0.80;;;;;;;21.89;73.24;98597.53;5233203;27;20528;-82
2021/06/29 06:50:38;;;;;;;0.80;0.80;;;;;;;21.83;73.22;98593.69;4563437;27;17805553;-79
2021/06/29 06:53:39;;;;;;;0.60;0.60;;;;;;;21.90;73.33;98601.91;5233206;27;21303;-79
2021/06/29 06:56:40;;;;;;;0.70;0.70;;;;;;;21.92;72.97;98597.19;5216457;27;20522;-78
2021/06/29 06:59:40;;;;;;;1.23;1.13;;;;;;;21.88;73.16;98589.66;5214526;27;20977;-79
2021/06/29 07:02:41;;;;;;;0.70;0.70;;;;;;;22.00;73.16;98588.28;5215864;27;20662;-80
2021/06/29 07:05:39;;;;;;;0.97;0.80;;;;;;;22.00;73.22;98569.41;5165953;27;21030;-80
2021/06/29 07:08:40;;;;;;;0.60;0.60;;;;;;;22.11;72.67;98575.25;5212339;27;20562;-79
2021/06/29 07:11:39;;;;;;;1.13;0.83;;;;;;;22.26;73.19;98596.91;5212234;27;21051;-82
2021/06/29 07:14:54;;;;;;;0.50;0.50;;;;;;;22.38;72.70;98603.59;5167226;27;21367;-83
2021/06/29 07:18:14;;;;;;;0.83;0.83;;;;;;;22.51;72.18;98598.47;5163148;27;20550;-79
2021/06/29 07:21:10;;;;;;;1.00;1.00;;;;;;;22.54;72.24;98592.72;5124636;27;20498;-82
2021/06/29 07:23:54;;;;;;;0.77;0.73;;;;;;;22.53;71.93;98593.72;5106646;28;21004;-79
2021/06/29 07:26:37;;;;;;;1.50;1.03;;;;;;;22.57;71.64;98589.66;5126942;27;20562;-79
2021/06/29 07:29:20;;;;;;;0.60;0.60;;;;;;;22.50;71.89;98567.09;5148108;27;20552;-78
2021/06/29 07:32:07;;;;;;;0.70;0.70;;;;;;;22.67;71.85;98577.78;5086281;28;20554;-80
2021/06/29 07:34:49;;;;;;;0.83;0.83;;;;;;;22.67;71.16;98577.78;5190108;27;20568;-79
2021/06/29 07:37:33;;;;;;;0.73;0.73;;;;;;;22.58;71.46;98564.34;5148178;27;20568;-78
2021/06/29 07:40:14;;;;;;;0.73;0.70;;;;;;;22.72;71.59;98572.69;5147683;27;20553;-77
2021/06/29 07:42:57;;;;;;;0.73;0.70;;;;;;;22.83;71.88;98564.22;5190082;27;20550;-78
2021/06/29 07:45:39;;;;;;;0.60;0.60;;;;;;;22.99;71.63;98571.34;5100915;28;21086;-80
2021/06/29 07:48:22;;;;;;;0.70;0.60;;;;;;;22.97;71.32;98538.28;5190702;27;20552;-77
2021/06/29 07:51:20;;;;;;;0.70;0.70;;;;;;;23.02;70.93;98541.25;5105348;28;20564;-80
2021/06/29 07:54:04;;;;;;;0.83;0.80;;;;;;;23.17;71.19;98567.28;5107519;28;20561;-81
2021/06/29 07:56:47;;;;;;;1.17;1.07;;;;;;;23.28;70.85;98561.44;5107158;28;20575;-81
2021/06/29 07:59:30;;;;;;;0.73;0.73;;;;;;;23.56;70.10;98571.69;5147720;27;20561;-79
2021/06/29 08:02:13;;;;;;;0.97;0.97;;;;;;;23.59;69.50;98555.09;5146351;27;21135;-81
2021/06/29 08:05:02;;;;;;;0.80;0.80;;;;;;;23.84;69.17;98583.53;5148523;27;20545;-81
2021/06/29 08:07:53;;;;;;;0.60;0.60;;;;;;;23.98;67.68;98571.03;5148043;27;20557;-80
2021/06/29 08:10:36;;;;;;;0.73;0.70;;;;;;;24.22;67.32;98561.75;5148986;27;20557;-79
2021/06/29 08:13:19;;;;;;;0.87;0.87;;;;;;;24.56;67.41;98559.25;5105942;28;20560;-79
2021/06/29 08:16:02;;;;;;;0.83;0.83;;;;;;;24.88;66.36;98552.50;5105982;28;20554;-79
2021/06/29 08:18:44;;;;;;;0.80;0.80;;;;;;;25.15;65.50;98552.75;5106227;28;20564;-76
2021/06/29 08:21:26;;;;;;;0.90;0.90;;;;;;;25.41;64.74;98553.81;5175195;27;1290893;-80
2021/06/29 08:24:09;;;;;;;1.10;1.00;;;;;;;25.62;63.12;98550.22;5147943;27;20557;-80
2021/06/29 08:26:52;;;;;;;0.73;0.73;;;;;;;26.13;62.78;98539.84;5107328;28;20583;-79
2021/06/29 08:29:33;;;;;;;0.80;0.80;;;;;;;27.29;59.58;98543.25;5187636;27;1337440;-78
2021/06/29 08:32:17;;;;;;;6.23;4.30;;;;;;;27.53;56.08;98537.13;5089348;28;20588;-77
2021/06/29 08:34:59;;;;;;;1.90;1.60;;;;;;;27.70;57.14;98545.69;5106084;28;20560;-78
2021/06/29 08:37:40;;;;;;;1.05;0.90;;;;;;;27.86;56.31;98545.25;5188794;27;1306675;-78
2021/06/29 08:40:23;;;;;;;1.00;1.00;;;;;;;28.44;54.22;98547.13;5168255;27;20632;-80
2021/06/29 08:43:10;;;;;;;1.43;1.33;;;;;;;28.97;53.27;98535.94;5106317;28;21058;-78
2021/06/29 08:45:53;;;;;;;0.70;0.70;;;;;;;29.23;52.19;98546.63;5105545;28;20574;-80
2021/06/29 08:48:38;;;;;;;0.90;0.90;;;;;;;29.28;52.66;98541.34;5106472;28;20571;-79
2021/06/29 08:51:21;;;;;;;0.90;0.70;;;;;;;29.67;50.54;98539.34;5126658;27;20567;-80
2021/06/29 08:54:05;;;;;;;0.67;0.67;;;;;;;30.73;50.13;98553.38;5106086;28;20559;-78
2021/06/29 08:56:48;;;;;;;0.70;0.70;;;;;;;32.05;46.97;98573.06;5106610;28;20949;-79
2021/06/29 08:59:33;;;;;;;0.90;0.90;;;;;;;32.51;44.72;98554.88;5093631;28;21018;-80
2021/06/29 09:02:17;;;;;;;0.80;0.80;;;;;;;32.20;44.19;98576.16;5105650;28;20560;-79
2021/06/29 09:05:18;;;;;;;0.80;0.80;;;;;;;31.75;46.74;98557.63;5106719;28;20570;-79
2021/06/29 09:08:05;;;;;;;1.00;1.00;;;;;;;32.21;47.45;98534.00;5106130;28;20590;-79
2021/06/29 09:11:07;;;;;;;0.97;0.90;;;;;;;32.38;46.17;98548.59;5107141;28;20571;-79
2021/06/29 09:14:05;;;;;;;0.60;0.60;;;;;;;32.24;43.48;98549.97;5106332;28;20563;-79
2021/06/29 09:16:48;;;;;;;0.90;0.90;;;;;;;32.27;44.18;98563.16;5106478;28;20568;-78
2021/06/29 09:19:39;;;;;;;0.63;0.63;;;;;;;32.66;43.56;98568.84;5106570;28;20565;-79
2021/06/29 09:22:30;;;;;;;0.60;0.60;;;;;;;32.59;43.78;98569.03;5189639;27;20938;-78
2021/06/29 09:25:26;;;;;;;2.00;1.20;;;;;;;32.10;44.50;98564.97;5147897;27;20555;-79
2021/06/29 09:28:08;;;;;;;0.80;0.80;;;;;;;31.64;45.44;98550.28;5107018;28;20557;-80
2021/06/29 09:30:52;;;;;;;0.70;0.70;;;;;;;32.03;46.15;98545.91;5099178;28;20950;-78
2021/06/29 09:33:37;;;;;;;1.37;0.70;;;;;;;32.86;44.51;98552.84;5106112;28;20568;-78
2021/06/29 09:36:22;;;;;;;1.27;1.17;;;;;;;33.34;41.06;98559.72;5105998;28;20568;-80
2021/06/29 09:39:08;;;;;;;0.80;0.80;;;;;;;34.66;39.09;98561.56;5147400;27;20568;-78
2021/06/29 09:42:02;;;;;;;0.77;0.77;;;;;;;35.85;36.81;98559.38;5105901;28;20572;-79
2021/06/29 09:44:45;;;;;;;0.60;0.60;;;;;;;37.31;34.52;98594.16;5105902;28;20548;-80
2021/06/29 09:47:29;;;;;;;0.70;0.70;;;;;;;38.96;32.56;98591.50;5086136;28;20566;-82
2021/06/29 09:50:52;;;;;;;0.80;0.80;;;;;;;40.95;29.67;98610.66;5190400;27;20560;-82
2021/06/29 09:53:52;;;;;;;1.10;1.00;;;;;;;42.45;26.41;98610.38;5148038;27;20640;-80
2021/06/29 09:56:38;;;;;;;0.43;0.43;;;;;;;43.28;25.45;98606.31;5142415;27;20554;-83
2021/06/29 09:59:24;;;;;;;0.60;0.60;;;;;;;44.20;26.05;98577.69;5148308;27;22467;-86
2021/06/29 10:02:08;;;;;;;1.10;0.82;;;;;;;44.46;23.34;98597.38;5106806;28;20590;-84
2021/06/29 10:05:20;;;;;;;0.73;0.73;;;;;;;44.12;23.88;98586.06;5127659;27;20565;-81
2021/06/29 10:08:05;;;;;;;0.70;0.70;;;;;;;43.36;24.79;98563.75;5130121;27;20559;-79
2021/06/29 10:10:49;;;;;;;1.08;1.08;;;;;;;42.81;26.34;98547.19;5107010;28;20558;-80
2021/06/29 10:13:34;;;;;;;0.60;0.60;;;;;;;42.03;27.13;98537.16;5106442;28;20579;-80
2021/06/29 10:16:21;;;;;;;0.90;0.90;;;;;;;39.94;29.13;98530.28;5148177;27;20560;-82
2021/06/29 10:19:16;;;;;;;0.87;0.87;;;;;;;38.71;30.99;98513.03;5107348;28;20564;-81
2021/06/29 10:22:01;;;;;;;0.60;0.60;;;;;;;37.69;32.60;98495.22;5102737;28;20568;-82
2021/06/29 10:24:46;;;;;;;0.70;0.70;;;;;;;37.16;32.74;98496.59;5169096;27;20558;-81
2021/06/29 10:27:30;;;;;;;0.77;0.77;;;;;;;36.81;35.09;98478.09;5147796;27;20555;-82
2021/06/29 10:30:14;;;;;;;0.67;0.67;;;;;;;36.53;36.08;98471.97;5147577;27;21351;-82
2021/06/29 10:32:57;;;;;;;0.87;0.87;;;;;;;36.06;36.73;98454.72;5106591;28;20563;-82
2021/06/29 10:35:42;;;;;;;0.70;0.70;;;;;;;35.79;36.29;98466.72;5146926;27;20567;-81
2021/06/29 10:38:24;;;;;;;0.70;0.70;;;;;;;35.71;35.40;98469.97;5148209;27;20934;-81
2021/06/29 10:41:10;;;;;;;0.80;0.80;;;;;;;35.55;36.21;98470.97;5147780;27;20557;-82
2021/06/29 10:43:53;;;;;;;0.70;0.70;;;;;;;35.35;36.75;98465.38;5106627;28;20582;-81
2021/06/29 10:46:41;;;;;;;0.90;0.80;;;;;;;35.17;37.05;98448.13;5147217;27;20583;-82
2021/06/29 10:49:47;;;;;;;0.70;0.70;;;;;;;34.93;36.33;98425.66;5106750;28;20560;-82
2021/06/29 10:52:40;;;;;;;0.80;0.80;;;;;;;34.98;36.65;98454.31;5107374;28;21056;-81
2021/06/29 10:55:37;;;;;;;0.70;0.70;;;;;;;34.56;36.80;98422.00;5106376;28;20566;-81
2021/06/29 10:58:34;;;;;;;0.60;0.60;;;;;;;34.01;38.27;98423.06;5147951;27;20552;-80
2021/06/29 11:01:27;;;;;;;0.60;0.60;;;;;;;33.88;38.21;98428.94;5106359;28;20564;-81
2021/06/29 11:04:12;;;;;;;0.80;0.80;;;;;;;33.56;39.35;98437.03;5147406;27;20563;-81
2021/06/29 11:06:55;;;;;;;1.80;1.63;;;;;;;33.14;38.92;98434.75;5104730;28;20572;-80
2021/06/29 11:09:53;;;;;;;0.80;0.80;;;;;;;32.76;39.81;98426.47;5168874;27;20567;-81
2021/06/29 11:12:39;;;;;;;0.60;0.60;;;;;;;32.89;38.95;98426.13;5083001;28;20953;-79
2021/06/29 11:15:41;;;;;;;1.10;1.10;;;;;;;33.11;40.58;98404.25;5126001;27;21434;-79
2021/06/29 11:18:51;;;;;;;0.67;0.67;;;;;;;33.43;38.37;98420.94;5106618;28;20574;-79
2021/06/29 11:21:36;;;;;;;0.80;0.80;;;;;;;33.55;39.06;98413.41;5105395;28;20961;-77
2021/06/29 11:24:38;;;;;;;0.60;0.60;;;;;;;33.65;39.50;98408.03;5168701;27;20571;-77
2021/06/29 11:28:00;;;;;;;0.70;0.70;;;;;;;33.61;37.06;98417.88;5105949;28;20590;-77
2021/06/29 11:31:25;;;;;;;0.50;0.50;;;;;;;33.24;38.81;98403.94;5125944;27;20566;-78
2021/06/29 11:34:08;;;;;;;0.60;0.60;;;;;;;33.25;36.07;98426.72;5106402;28;20558;-78
2021/06/29 11:36:52;;;;;;;0.60;0.60;;;;;;;33.50;40.91;98385.91;5168619;27;20570;-79
2021/06/29 11:39:37;;;;;;;0.70;0.70;;;;;;;33.73;38.23;98393.88;5107036;28;20572;-77
2021/06/29 11:42:24;;;;;;;0.80;0.80;;;;;;;34.10;36.07;98410.53;5106466;28;20579;-81
2021/06/29 11:45:31;;;;;;;0.60;0.60;;;;;;;33.83;37.88;98377.53;5099569;28;20565;-84
2021/06/29 11:48:41;;;;;;;0.60;0.60;;;;;;;33.83;37.11;98399.50;5169499;27;20561;-83
2021/06/29 11:51:53;;;;;;;0.60;0.60;;;;;;;33.56;38.34;98381.28;5148012;27;20557;-81
2021/06/29 11:54:38;;;;;;;0.90;0.90;;;;;;;33.24;38.71;98378.41;5106557;28;21029;-82
2021/06/29 11:57:23;;;;;;;0.70;0.70;;;;;;;33.18;38.45;98352.75;5168400;27;21034;-85
2021/06/29 12:00:20;;;;;;;0.53;0.53;;;;;;;33.43;37.66;98382.50;5106395;28;20567;-82
2021/06/29 12:03:06;;;;;;;0.50;0.50;;;;;;;33.59;38.28;98365.13;5148539;27;20556;-80
2021/06/29 12:05:50;;;;;;;0.70;0.70;;;;;;;34.72;36.23;98334.94;5106524;28;20563;-83
2021/06/29 12:08:35;;;;;;;0.80;0.80;;;;;;;36.21;35.41;98369.28;5087368;28;21087;-82
2021/06/29 12:11:19;;;;;;;0.60;0.60;;;;;;;37.10;32.08;98385.31;5106622;28;20532;-82
2021/06/29 12:14:01;;;;;;;0.93;0.93;;;;;;;37.82;31.31;98383.22;5148678;27;20553;-80
2021/06/29 12:16:42;;;;;;;0.70;0.70;;;;;;;37.81;30.03;98401.75;5094473;28;20608;-80
2021/06/29 12:19:26;;;;;;;0.70;0.70;;;;;;;37.61;29.31;98393.47;5107087;28;21203;-81
2021/06/29 12:22:09;;;;;;;0.83;0.70;;;;;;;38.64;29.43;98385.22;5106865;28;20556;-84
2021/06/29 12:24:52;;;;;;;0.70;0.70;;;;;;;40.34;28.20;98361.66;5106932;28;20560;-80
2021/06/29 12:27:43;;;;;;;0.70;0.70;;;;;;;39.85;28.67;98360.13;5106375;28;21082;-80
2021/06/29 12:30:39;;;;;;;0.70;0.70;;;;;;;38.38;29.66;98364.34;5148015;27;20572;-81
2021/06/29 12:33:24;;;;;;;0.60;0.60;;;;;;;38.64;29.66;98357.53;5106998;28;20555;-83
2021/06/29 12:36:12;;;;;;;0.50;0.50;;;;;;;39.06;28.08;98364.38;5106474;28;20560;-78
2021/06/29 12:39:09;;;;;;;0.60;0.60;;;;;;;39.10;26.79;98376.50;5188920;27;20984;-79
2021/06/29 12:41:51;;;;;;;0.70;0.70;;;;;;;40.58;26.18;98384.56;5107503;28;20567;-79
2021/06/29 12:45:22;;;;;;;1.07;0.90;;;;;;;42.95;23.86;98391.94;5085763;28;20561;-79
2021/06/29 12:58:27;;;;;;;0.90;0.77;;;;;;;44.87;22.60;98369.78;5148698;27;20553;-81
2021/06/29 13:01:12;;;;;;;0.88;0.88;;;;;;;45.63;20.04;98392.22;5106408;28;20545;-81
2021/06/29 13:03:58;;;;;;;0.70;0.70;;;;;;;45.73;21.50;98378.69;5107205;28;21340;-79
2021/06/29 13:06:43;;;;;;;0.60;0.60;;;;;;;46.21;20.72;98354.19;5232460;27;20987;-83
2021/06/29 13:09:33;;;;;;;0.52;0.52;;;;;;;47.03;19.09;98375.72;5106809;28;20562;-82
2021/06/29 13:12:16;;;;;;;0.80;0.80;;;;;;;47.62;18.84;98382.91;5092420;28;20566;-79
2021/06/29 13:15:04;;;;;;;0.60;0.60;;;;;;;47.86;17.68;98380.94;5128213;27;20580;-81
2021/06/29 13:17:51;;;;;;;0.50;0.50;;;;;;;45.69;18.91;98383.31;5149048;27;20549;-84
2021/06/29 13:20:34;;;;;;;0.52;0.52;;;;;;;43.27;22.65;98362.13;5147844;27;20553;-84
2021/06/29 13:23:18;;;;;;;0.70;0.70;;;;;;;41.33;24.61;98331.59;5125945;27;20566;-81
2021/06/29 13:26:08;;;;;;;0.70;0.70;;;;;;;40.18;26.42;98309.13;5108222;27;20567;-84
2021/06/29 13:28:52;;;;;;;0.60;0.60;;;;;;;40.49;25.84;98328.09;5107681;28;20552;-82
2021/06/29 13:31:42;;;;;;;0.70;0.70;;;;;;;41.92;25.76;98321.44;5127756;27;20562;-83
2021/06/29 13:34:27;;;;;;;0.80;0.80;;;;;;;43.34;23.21;98332.63;5107166;28;20578;-83
2021/06/29 13:37:20;;;;;;;0.80;0.80;;;;;;;44.59;20.94;98356.16;5102611;28;20578;-83
2021/06/29 13:40:19;;;;;;;0.60;0.60;;;;;;;45.15;20.09;98350.63;5105353;28;20570;-82
2021/06/29 13:43:08;;;;;;;9.82;5.95;;;;;;;45.07;19.69;98310.34;5104550;28;21101;-79
2021/06/29 13:45:54;;;;;;;1.90;1.80;;;;;;;44.95;20.65;98333.41;5147851;27;21247;-80
2021/06/29 13:48:37;;;;;;;0.73;0.73;;;;;;;42.76;22.82;98307.72;5106925;28;21074;-84
2021/06/29 13:51:26;;;;;;;0.70;0.70;;;;;;;40.83;23.65;98308.38;5146944;27;20579;-80
2021/06/29 13:54:23;;;;;;;0.70;0.70;;;;;;;39.60;25.28;98302.22;5103967;28;20572;-78